Time;durP1;ratioP1;P1;durP2;ratioP2;P2;SDS_P1;SDS_P2;PMS_P1;PMS_P2;Temp;Humidity;BMP_temperature;BMP_pressure;BME280_temperature;BME280_humidity;BME280_pressure;Samples;Min_cycle;Max_cycle;Signal;HPM_P1;HPM_P2
2023/06/08 00:01:17;;;;;;;5.18;4.75;;;;;;;16.15;100.00;63667.09;5065785;28;20221;-76
2023/06/08 00:03:45;;;;;;;5.30;4.80;;;;;;;16.08;100.00;63662.91;5066745;28;20252;-77
2023/06/08 00:06:15;;;;;;;7.72;4.60;;;;;;;16.03;100.00;63657.19;5065278;28;20224;-78
2023/06/08 00:08:43;;;;;;;5.28;4.65;;;;;;;15.98;100.00;63655.06;5064316;28;20193;-77
2023/06/08 00:11:10;;;;;;;6.68;4.95;;;;;;;15.96;100.00;63652.47;5080642;28;20219;-77
2023/06/08 00:13:37;;;;;;;4.63;4.32;;;;;;;15.88;100.00;63639.00;5085127;28;20453;-77
2023/06/08 00:16:05;;;;;;;5.78;4.90;;;;;;;15.83;100.00;63636.91;5070953;28;20235;-78
2023/06/08 00:18:32;;;;;;;5.63;5.10;;;;;;;15.82;100.00;63635.34;5066391;28;20201;-78
2023/06/08 00:21:01;;;;;;;5.35;4.78;;;;;;;15.88;100.00;63641.56;5084633;28;20196;-77
2023/06/08 00:23:29;;;;;;;5.25;4.75;;;;;;;15.88;100.00;63642.09;5084592;28;20223;-77
2023/06/08 00:25:56;;;;;;;4.93;4.47;;;;;;;15.87;100.00;63643.13;5085712;28;20228;-77
2023/06/08 00:28:23;;;;;;;5.15;4.75;;;;;;;15.91;100.00;63647.28;5077412;28;20243;-78
2023/06/08 00:30:50;;;;;;;4.50;4.05;;;;;;;15.97;100.00;63656.59;5067765;28;20200;-78
2023/06/08 00:33:18;;;;;;;5.45;5.03;;;;;;;16.02;100.00;63658.69;5078537;28;20400;-78
2023/06/08 00:35:45;;;;;;;5.32;4.82;;;;;;;15.99;100.00;63650.44;5086214;28;20460;-78
2023/06/08 00:38:14;;;;;;;6.40;5.80;;;;;;;15.98;100.00;63646.84;5081782;28;20247;-77
2023/06/08 00:40:42;;;;;;;5.43;4.47;;;;;;;15.97;100.00;63651.47;5076435;28;20247;-78
2023/06/08 00:43:09;;;;;;;5.28;4.88;;;;;;;15.86;100.00;63642.06;5078523;28;20235;-78
2023/06/08 00:45:36;;;;;;;5.07;4.10;;;;;;;15.75;100.00;63626.03;5064081;28;20537;-78
2023/06/08 00:48:03;;;;;;;5.00;4.60;;;;;;;15.68;100.00;63623.34;5080760;28;20397;-77
2023/06/08 00:50:32;;;;;;;6.47;4.32;;;;;;;15.65;100.00;63620.75;5064970;28;20205;-79
2023/06/08 00:53:00;;;;;;;7.13;4.38;;;;;;;15.59;100.00;63614.50;5064114;28;20224;-78
2023/06/08 00:55:33;;;;;;;5.13;4.47;;;;;;;15.55;100.00;63607.78;5073056;28;20224;-78
2023/06/08 00:58:00;;;;;;;6.22;4.40;;;;;;;15.44;100.00;63598.41;5084111;28;20226;-80
2023/06/08 01:00:28;;;;;;;5.97;4.32;;;;;;;15.42;100.00;63594.28;5085339;28;20550;-80
2023/06/08 01:02:56;;;;;;;7.80;4.35;;;;;;;15.32;100.00;63585.91;5069183;28;20322;-77
2023/06/08 01:05:23;;;;;;;4.82;4.43;;;;;;;15.22;100.00;63568.31;5078638;28;20240;-79
2023/06/08 01:08:04;;;;;;;5.00;4.63;;;;;;;15.24;100.00;63577.59;5067665;28;20240;-79
2023/06/08 01:10:41;;;;;;;4.63;4.25;;;;;;;15.27;100.00;63578.16;5072127;28;20185;-76
2023/06/08 01:13:14;;;;;;;5.15;4.75;;;;;;;15.16;100.00;63562.09;5068144;28;20232;-78
2023/06/08 01:15:45;;;;;;;4.70;4.43;;;;;;;15.16;100.00;63569.28;5067942;28;20260;-77
2023/06/08 01:18:17;;;;;;;4.70;4.30;;;;;;;15.12;100.00;63560.00;5068313;28;20232;-77
2023/06/08 01:21:02;;;;;;;5.32;4.53;;;;;;;15.11;100.00;63562.03;5075643;28;20402;-78
2023/06/08 01:23:40;;;;;;;4.90;4.50;;;;;;;15.10;100.00;63557.91;5081872;28;20207;-79
2023/06/08 01:26:10;;;;;;;5.05;4.65;;;;;;;15.05;100.00;63561.44;5093721;28;20273;-78
2023/06/08 01:28:39;;;;;;;4.60;4.25;;;;;;;15.08;100.00;63558.94;5085450;28;20260;-77
2023/06/08 01:31:06;;;;;;;7.18;4.43;;;;;;;15.07;100.00;63557.88;5085528;28;20376;-76
2023/06/08 01:33:34;;;;;;;5.20;4.80;;;;;;;15.03;100.00;63551.16;5073520;28;20212;-78
2023/06/08 01:36:07;;;;;;;4.40;4.10;;;;;;;14.99;100.00;63544.97;5068892;28;20205;-77
2023/06/08 01:38:45;;;;;;;4.72;4.30;;;;;;;14.98;100.00;63548.53;5080778;28;20218;-77
2023/06/08 01:41:20;;;;;;;5.20;4.70;;;;;;;14.94;100.00;63547.44;5088818;28;20208;-79
2023/06/08 01:43:51;;;;;;;6.60;4.03;;;;;;;14.89;100.00;63542.25;5086719;28;20212;-77
2023/06/08 01:46:20;;;;;;;5.13;4.63;;;;;;;14.75;100.00;63522.06;5087500;28;20235;-78
2023/06/08 01:48:49;;;;;;;4.55;4.15;;;;;;;14.68;100.00;63517.88;5069551;28;20256;-77
2023/06/08 01:51:19;;;;;;;6.68;4.35;;;;;;;14.64;100.00;63516.28;5084280;28;20246;-76
2023/06/08 01:53:46;;;;;;;5.20;4.35;;;;;;;14.67;100.00;63518.88;5086483;28;20196;-77
2023/06/08 01:56:15;;;;;;;4.72;4.22;;;;;;;14.66;100.00;63510.69;5082839;28;20217;-77
2023/06/08 01:58:41;;;;;;;6.50;4.88;;;;;;;14.58;100.00;63506.97;5075844;28;20200;-78
2023/06/08 02:01:08;;;;;;;5.75;4.90;;;;;;;14.58;100.00;63504.41;5087966;28;20204;-77
2023/06/08 02:03:35;;;;;;;6.03;4.55;;;;;;;14.60;100.00;63503.94;5081471;28;20197;-79
2023/06/08 02:06:03;;;;;;;4.90;4.50;;;;;;;14.57;100.00;63503.88;5066844;28;20423;-78
2023/06/08 02:08:30;;;;;;;4.65;4.32;;;;;;;14.49;100.00;63492.50;5077527;28;20196;-78
2023/06/08 02:10:57;;;;;;;6.97;4.90;;;;;;;14.48;100.00;63496.59;5080001;28;20212;-78
2023/06/08 02:13:25;;;;;;;5.32;4.82;;;;;;;14.28;100.00;63476.34;5071842;28;20392;-77
2023/06/08 02:15:53;;;;;;;6.07;5.03;;;;;;;14.33;100.00;63481.53;5071304;28;20214;-79
2023/06/08 02:18:21;;;;;;;5.35;4.95;;;;;;;14.34;100.00;63479.50;5084537;28;20220;-78
2023/06/08 02:20:48;;;;;;;6.57;5.05;;;;;;;14.31;100.00;63479.44;5071379;28;20219;-78
2023/06/08 02:23:15;;;;;;;7.72;4.68;;;;;;;14.36;100.00;63486.69;5066793;28;20255;-79
2023/06/08 02:25:42;;;;;;;5.43;4.93;;;;;;;14.36;100.00;63484.13;5070756;28;20260;-79
2023/06/08 02:28:10;;;;;;;5.00;4.60;;;;;;;14.42;100.00;63490.88;5088748;28;20220;-77
2023/06/08 02:30:38;;;;;;;5.45;4.82;;;;;;;14.39;100.00;63490.31;5072517;28;20201;-77
2023/06/08 02:33:06;;;;;;;5.25;4.75;;;;;;;14.44;100.00;63490.41;5066330;28;20214;-78
2023/06/08 02:35:33;;;;;;;7.32;4.93;;;;;;;14.43;100.00;63488.81;5075742;28;20208;-78
2023/06/08 02:38:00;;;;;;;4.57;4.18;;;;;;;14.43;100.00;63488.81;5075979;28;20217;-79
2023/06/08 02:40:27;;;;;;;4.50;4.10;;;;;;;14.41;100.00;63487.28;5067551;28;20235;-78
2023/06/08 02:42:54;;;;;;;6.97;4.78;;;;;;;14.34;100.00;63482.06;5067886;28;20216;-77
2023/06/08 02:45:21;;;;;;;11.00;4.53;;;;;;;14.11;100.00;63456.09;5081650;28;20216;-78
2023/06/08 02:47:49;;;;;;;5.07;4.57;;;;;;;14.28;100.00;63475.81;5065893;28;20247;-79
2023/06/08 02:50:16;;;;;;;9.05;4.72;;;;;;;14.18;100.00;63468.50;5065944;28;20205;-78
2023/06/08 02:52:43;;;;;;;4.97;4.57;;;;;;;14.20;100.00;63473.13;5067621;28;20221;-78
2023/06/08 02:55:10;;;;;;;5.03;4.35;;;;;;;14.16;100.00;63461.28;5083577;28;20436;-77
2023/06/08 02:57:38;;;;;;;4.75;4.35;;;;;;;14.18;100.00;63458.25;5068622;28;20217;-79
2023/06/08 03:00:08;;;;;;;6.43;4.15;;;;;;;14.21;100.00;63471.59;5065713;28;20232;-80
2023/06/08 03:02:35;;;;;;;5.13;4.40;;;;;;;14.12;100.00;63462.25;5073024;28;20220;-79
2023/06/08 03:05:04;;;;;;;4.40;4.03;;;;;;;14.24;100.00;63474.72;5085086;28;20192;-77
2023/06/08 03:07:33;;;;;;;4.75;4.45;;;;;;;14.26;100.00;63471.16;5080720;28;20235;-78
2023/06/08 03:10:00;;;;;;;4.68;4.10;;;;;;;14.30;100.00;63478.41;5065187;28;20223;-80
2023/06/08 03:12:27;;;;;;;4.90;4.55;;;;;;;14.32;100.00;63483.06;5085266;28;20220;-78
2023/06/08 03:14:54;;;;;;;4.78;4.10;;;;;;;14.29;100.00;63474.31;5083814;28;20200;-78
2023/06/08 03:17:24;;;;;;;7.25;4.85;;;;;;;14.26;100.00;63476.81;5065430;28;20292;-78
2023/06/08 03:19:50;;;;;;;4.55;4.10;;;;;;;14.17;100.00;63462.31;5066261;28;20278;-79
2023/06/08 03:22:20;;;;;;;5.20;4.72;;;;;;;14.06;100.00;63450.41;5084319;28;20319;-79
2023/06/08 03:24:48;;;;;;;9.52;5.50;;;;;;;14.02;100.00;63446.75;5085589;28;20200;-77
2023/06/08 03:27:16;;;;;;;4.55;4.25;;;;;;;14.07;100.00;63454.50;5086747;28;20235;-76
2023/06/08 03:29:43;;;;;;;6.68;4.80;;;;;;;14.23;100.00;63470.59;5082443;28;20231;-77
2023/06/08 03:32:10;;;;;;;6.00;5.30;;;;;;;14.15;100.00;63464.88;5085849;28;20282;-77
2023/06/08 03:34:38;;;;;;;10.05;5.07;;;;;;;14.23;100.00;63468.03;5085068;28;20204;-77
2023/06/08 03:37:05;;;;;;;5.22;4.82;;;;;;;14.35;100.00;63481.03;5084314;28;20208;-79
2023/06/08 03:39:33;;;;;;;5.78;5.28;;;;;;;14.54;100.00;63505.38;5070860;28;20208;-78
2023/06/08 03:42:00;;;;;;;7.10;4.72;;;;;;;14.59;100.00;63505.97;5064751;28;20217;-77
2023/06/08 03:44:27;;;;;;;5.20;4.75;;;;;;;14.74;100.00;63526.69;5065416;28;20196;-77
2023/06/08 03:46:53;;;;;;;7.60;5.10;;;;;;;14.93;100.00;63543.84;5068149;28;20272;-78
2023/06/08 03:49:20;;;;;;;5.50;4.90;;;;;;;15.09;100.00;63559.97;5085583;28;20200;-79
2023/06/08 03:51:47;;;;;;;5.07;4.68;;;;;;;15.22;100.00;63578.09;5085293;28;20232;-77
2023/06/08 03:54:15;;;;;;;6.07;4.75;;;;;;;15.29;100.00;63580.75;5070068;28;20205;-78
2023/06/08 03:56:43;;;;;;;6.25;4.28;;;;;;;15.52;100.00;63604.16;5072899;28;20242;-77
2023/06/08 03:59:10;;;;;;;5.68;4.72;;;;;;;15.67;100.00;63617.69;5082363;28;20188;-78
2023/06/08 04:01:41;;;;;;;5.78;4.43;;;;;;;15.84;100.00;63634.88;5066964;28;20651;-77
2023/06/08 04:04:08;;;;;;;8.15;5.38;;;;;;;15.99;100.00;63650.44;5065283;28;20189;-79
2023/06/08 04:06:38;;;;;;;6.25;4.50;;;;;;;15.89;100.00;63637.50;5071853;28;20239;-77
2023/06/08 04:09:06;;;;;;;5.78;5.20;;;;;;;15.88;100.00;63642.09;5064411;28;20267;-78
2023/06/08 04:11:33;;;;;;;7.20;4.60;;;;;;;15.96;100.00;63647.84;5064391;28;20223;-79
2023/06/08 04:14:02;;;;;;;6.53;4.43;;;;;;;16.16;100.00;63673.78;5070017;28;20213;-78
2023/06/08 04:16:30;;;;;;;4.72;4.35;;;;;;;16.37;100.00;63692.03;5086599;28;20216;-78
2023/06/08 04:18:57;;;;;;;6.03;4.57;;;;;;;16.34;100.00;63689.44;5085250;28;20196;-77
2023/06/08 04:21:25;;;;;;;5.07;4.53;;;;;;;16.06;100.00;63660.31;5081633;28;20227;-78
2023/06/08 04:23:52;;;;;;;5.30;4.90;;;;;;;16.22;100.00;63676.44;5082181;28;20196;-77
2023/06/08 04:26:20;;;;;;;6.07;5.45;;;;;;;16.15;100.00;63672.25;5063517;28;20225;-79
2023/06/08 04:28:48;;;;;;;5.50;5.00;;;;;;;16.17;100.00;63671.72;5068284;28;20204;-76
2023/06/08 04:31:16;;;;;;;5.68;5.25;;;;;;;16.05;100.00;63661.81;5067073;28;20400;-77
2023/06/08 04:33:44;;;;;;;6.05;5.40;;;;;;;16.03;100.00;63657.19;5085058;28;20192;-77
2023/06/08 04:36:11;;;;;;;5.88;5.40;;;;;;;16.02;100.00;63654.09;5082184;28;20398;-78
2023/06/08 04:38:38;;;;;;;5.88;5.10;;;;;;;16.02;100.00;63656.13;5083648;28;21114;-75
2023/06/08 04:41:07;;;;;;;6.47;5.38;;;;;;;15.98;100.00;63649.94;5080324;28;20896;-77
2023/06/08 04:43:35;;;;;;;5.10;4.68;;;;;;;16.00;100.00;63654.56;5088038;28;20220;-78
2023/06/08 04:46:05;;;;;;;7.78;5.18;;;;;;;16.29;100.00;63684.22;5081250;28;20598;-78
2023/06/08 04:48:34;;;;;;;6.03;5.45;;;;;;;16.50;100.00;63700.94;5070848;28;20193;-77
2023/06/08 04:51:03;;;;;;;5.20;4.57;;;;;;;16.76;100.00;63728.00;5077463;28;20261;-79
2023/06/08 04:53:33;;;;;;;12.02;5.05;;;;;;;16.92;100.00;63752.38;5088542;28;20392;-79
2023/06/08 04:56:03;;;;;;;5.32;4.93;;;;;;;16.82;100.00;63739.41;5088000;28;20237;-77
2023/06/08 04:58:30;;;;;;;7.80;5.35;;;;;;;16.74;100.00;63728.47;5087652;28;20355;-78
2023/06/08 05:00:58;;;;;;;6.00;5.50;;;;;;;16.83;100.00;63740.44;5086610;28;20224;-78
2023/06/08 05:03:26;;;;;;;9.15;5.05;;;;;;;17.10;100.00;63768.53;5089463;28;20196;-78
2023/06/08 05:05:55;;;;;;;4.85;4.43;;;;;;;17.25;100.00;63779.00;5087192;28;20264;-79
2023/06/08 05:08:22;;;;;;;5.43;5.03;;;;;;;17.31;100.00;63792.44;5079642;28;20255;-78
2023/06/08 05:10:49;;;;;;;9.80;4.90;;;;;;;17.56;100.00;63818.50;5067900;28;20485;-80
2023/06/08 05:13:16;;;;;;;5.13;4.63;;;;;;;17.75;100.00;63833.13;5067875;28;20252;-77
2023/06/08 05:15:43;;;;;;;8.15;4.65;;;;;;;17.65;100.00;63825.31;5068602;28;20184;-79
2023/06/08 05:18:10;;;;;;;7.25;5.50;;;;;;;17.84;98.95;63847.13;5081321;28;20251;-81
2023/06/08 05:20:37;;;;;;;8.48;4.30;;;;;;;17.77;98.83;63834.69;5076016;28;20358;-79
2023/06/08 05:23:05;;;;;;;5.35;4.85;;;;;;;17.73;99.49;63833.09;5067814;28;20392;-78
2023/06/08 05:25:36;;;;;;;5.13;4.32;;;;;;;17.78;99.28;63838.31;5067008;28;20247;-78
2023/06/08 05:28:03;;;;;;;5.50;4.20;;;;;;;18.02;99.52;63861.25;5084166;28;20235;-78
2023/06/08 05:30:30;;;;;;;4.47;4.07;;;;;;;18.27;98.11;63894.50;5090022;28;20192;-78
2023/06/08 05:32:59;;;;;;;4.70;3.42;;;;;;;18.52;94.54;63912.84;5069677;28;20229;-78
2023/06/08 05:35:26;;;;;;;4.63;4.22;;;;;;;18.75;94.62;63938.88;5070064;28;20209;-78
2023/06/08 05:37:54;;;;;;;5.03;3.85;;;;;;;18.84;94.79;63948.78;5073136;28;20315;-79
2023/06/08 05:40:22;;;;;;;5.15;3.42;;;;;;;18.91;93.20;63953.50;5068576;28;20193;-77
2023/06/08 05:42:49;;;;;;;4.07;3.70;;;;;;;19.05;92.09;63967.56;5068078;28;20225;-79
2023/06/08 05:45:16;;;;;;;5.00;3.72;;;;;;;18.87;91.07;63949.31;5086677;28;20223;-77
2023/06/08 05:47:43;;;;;;;3.40;3.10;;;;;;;18.80;92.62;63939.44;5069917;28;20512;-78
2023/06/08 05:50:11;;;;;;;5.53;4.20;;;;;;;18.75;93.75;63939.41;5069242;28;20201;-78
2023/06/08 05:52:38;;;;;;;3.65;3.28;;;;;;;19.00;94.32;63964.94;5067044;28;20216;-79
2023/06/08 05:55:06;;;;;;;4.03;3.70;;;;;;;19.07;91.71;63975.31;5082657;28;20196;-80
2023/06/08 05:57:34;;;;;;;8.32;3.75;;;;;;;19.12;91.76;63977.97;5087483;28;20216;-79
2023/06/08 06:00:06;;;;;;;7.85;4.05;;;;;;;19.28;91.84;63991.53;5085358;28;20196;-78
2023/06/08 06:02:33;;;;;;;3.85;3.50;;;;;;;19.33;89.07;64001.94;5085084;28;20291;-78
2023/06/08 06:04:59;;;;;;;7.22;3.28;;;;;;;19.47;87.21;64009.31;5087480;28;20305;-78
2023/06/08 06:07:26;;;;;;;3.75;3.50;;;;;;;19.70;87.98;64037.44;5086705;28;20261;-77
2023/06/08 06:09:53;;;;;;;5.53;3.90;;;;;;;19.75;83.78;64045.75;5074543;28;20423;-78
2023/06/08 06:12:20;;;;;;;5.43;3.97;;;;;;;19.35;85.77;63996.81;5066565;28;20226;-77
2023/06/08 06:14:52;;;;;;;10.20;3.72;;;;;;;19.17;87.59;63985.75;5083481;28;20415;-80
2023/06/08 06:17:19;;;;;;;4.53;4.10;;;;;;;19.31;84.97;63997.78;5086264;28;20652;-78
2023/06/08 06:19:46;;;;;;;5.47;4.10;;;;;;;19.34;84.68;64000.41;5086446;28;20521;-78
2023/06/08 06:22:12;;;;;;;6.75;5.43;;;;;;;19.22;89.12;63990.47;5068346;28;20632;-78
2023/06/08 06:24:39;;;;;;;6.63;3.33;;;;;;;19.57;86.63;64023.88;5067170;28;20271;-78
2023/06/08 06:27:07;;;;;;;5.53;4.00;;;;;;;19.66;80.54;64030.66;5066171;28;20278;-77
2023/06/08 06:29:34;;;;;;;4.90;4.40;;;;;;;19.34;81.87;63998.34;5071064;28;20259;-76
2023/06/08 06:32:03;;;;;;;7.07;4.63;;;;;;;19.14;85.40;63982.63;5073613;28;20248;-78
2023/06/08 06:34:30;;;;;;;6.15;4.45;;;;;;;19.22;84.67;63985.81;5067015;28;20207;-79
2023/06/08 06:36:58;;;;;;;7.80;3.83;;;;;;;19.33;83.00;63997.31;5066349;28;20231;-79
2023/06/08 06:39:24;;;;;;;5.47;3.53;;;;;;;19.59;82.07;64023.38;5083238;28;20199;-77
2023/06/08 06:41:51;;;;;;;6.63;4.07;;;;;;;19.69;82.75;64034.31;5086635;28;20600;-79
2023/06/08 06:44:19;;;;;;;5.20;4.35;;;;;;;19.91;81.01;64057.28;5087266;28;20250;-79
2023/06/08 06:46:46;;;;;;;3.88;3.53;;;;;;;19.86;77.09;64054.66;5084390;28;20278;-79
2023/06/08 06:49:15;;;;;;;6.22;3.70;;;;;;;19.87;76.21;64055.69;5080518;28;20199;-77
2023/06/08 06:51:42;;;;;;;5.78;3.13;;;;;;;20.08;79.17;64077.06;5085840;28;20428;-78
2023/06/08 06:54:09;;;;;;;3.60;3.30;;;;;;;20.29;76.34;64107.31;5086844;28;20219;-79
2023/06/08 06:56:36;;;;;;;3.20;3.00;;;;;;;20.53;74.98;64122.00;5084049;28;20299;-80
2023/06/08 06:59:03;;;;;;;6.05;3.85;;;;;;;20.75;71.26;64149.59;5067598;28;20367;-77
2023/06/08 07:01:35;;;;;;;5.13;3.60;;;;;;;20.82;74.15;64151.22;5085644;28;20216;-77
2023/06/08 07:04:04;;;;;;;3.95;3.50;;;;;;;20.74;70.47;64145.47;5067184;28;20196;-77
2023/06/08 07:06:32;;;;;;;4.40;3.92;;;;;;;20.79;70.91;64148.09;5067153;28;20257;-77
2023/06/08 07:09:00;;;;;;;5.53;3.67;;;;;;;20.70;70.26;64141.81;5068440;28;20197;-78
2023/06/08 07:11:27;;;;;;;4.68;3.53;;;;;;;20.59;71.87;64130.84;5074765;28;20223;-78
2023/06/08 07:13:54;;;;;;;4.50;3.80;;;;;;;20.73;73.32;64142.34;5067142;28;20204;-79
2023/06/08 07:16:21;;;;;;;3.58;3.38;;;;;;;20.94;74.71;64169.44;5084054;28;20215;-77
2023/06/08 07:18:50;;;;;;;6.18;3.55;;;;;;;21.20;72.61;64196.09;5085669;28;20195;-78
2023/06/08 07:21:20;;;;;;;5.28;3.40;;;;;;;21.27;67.44;64203.94;5085859;28;20265;-78
2023/06/08 07:23:49;;;;;;;5.70;3.63;;;;;;;21.26;67.38;64197.19;5066608;28;20600;-76
2023/06/08 07:26:16;;;;;;;6.93;3.50;;;;;;;21.43;65.66;64212.84;5069043;28;20205;-78
2023/06/08 07:28:43;;;;;;;3.90;3.60;;;;;;;21.33;70.03;64210.19;5070849;28;20540;-77
2023/06/08 07:31:10;;;;;;;5.10;3.78;;;;;;;21.46;69.18;64223.78;5069741;28;20284;-78
2023/06/08 07:33:37;;;;;;;5.10;3.72;;;;;;;21.50;66.33;64225.34;5068612;28;20561;-79
2023/06/08 07:36:04;;;;;;;8.25;4.10;;;;;;;21.65;67.99;64237.91;5065788;28;20201;-78
2023/06/08 07:38:31;;;;;;;7.15;3.92;;;;;;;21.81;68.54;64254.66;5074792;28;20469;-78
2023/06/08 07:40:59;;;;;;;4.05;3.65;;;;;;;21.85;67.01;64264.00;5075106;28;20203;-77
2023/06/08 07:43:27;;;;;;;6.57;3.95;;;;;;;21.90;66.05;64268.72;5073070;28;20470;-75
2023/06/08 07:45:54;;;;;;;4.68;4.07;;;;;;;21.69;68.62;64242.63;5065705;28;20235;-79
2023/06/08 07:48:21;;;;;;;6.57;3.38;;;;;;;21.54;69.39;64229.53;5067579;28;20240;-78
2023/06/08 07:50:48;;;;;;;6.45;3.97;;;;;;;21.65;70.47;64241.03;5067195;28;20258;-78
2023/06/08 07:53:15;;;;;;;5.85;4.03;;;;;;;21.52;70.35;64226.91;5075972;28;20221;-76
2023/06/08 07:55:42;;;;;;;10.65;4.13;;;;;;;21.70;71.37;64243.16;5064972;28;20272;-74
2023/06/08 07:58:11;;;;;;;5.45;3.72;;;;;;;21.76;70.63;64249.94;5064100;28;20221;-75
2023/06/08 08:00:39;;;;;;;7.88;4.38;;;;;;;21.66;70.50;64242.06;5071034;28;20229;-75
2023/06/08 08:03:05;;;;;;;6.50;3.75;;;;;;;21.78;71.62;64249.44;5075828;28;20215;-75
2023/06/08 08:05:32;;;;;;;4.20;3.80;;;;;;;21.73;72.20;64251.47;5071898;28;20208;-75
2023/06/08 08:08:02;;;;;;;7.70;4.90;;;;;;;22.15;69.90;64289.66;5069904;28;20429;-75
2023/06/08 08:10:28;;;;;;;3.88;3.65;;;;;;;22.39;64.36;64317.34;5075582;28;20264;-76
2023/06/08 08:12:55;;;;;;;6.35;4.15;;;;;;;22.34;64.21;64310.03;5071032;28;20238;-74
2023/06/08 08:15:24;;;;;;;3.60;3.33;;;;;;;22.49;64.62;64330.38;5072483;28;20519;-75
2023/06/08 08:17:51;;;;;;;4.30;3.72;;;;;;;22.81;63.19;64361.28;5083285;28;20278;-76
2023/06/08 08:20:18;;;;;;;3.45;3.25;;;;;;;22.94;61.86;64380.06;5079497;28;20196;-76
2023/06/08 08:22:45;;;;;;;5.88;3.88;;;;;;;22.95;59.38;64375.91;5076856;28;20436;-76
2023/06/08 08:25:12;;;;;;;4.57;3.67;;;;;;;23.01;59.66;64379.06;5080565;28;20234;-76
2023/06/08 08:27:39;;;;;;;4.40;3.83;;;;;;;22.78;62.50;64355.53;5074051;28;20373;-76
2023/06/08 08:30:07;;;;;;;3.85;3.25;;;;;;;23.01;59.89;64384.78;5081079;28;20554;-75
2023/06/08 08:32:36;;;;;;;3.40;3.20;;;;;;;22.97;59.71;64380.09;5079605;28;20223;-75
2023/06/08 08:35:04;;;;;;;5.45;4.30;;;;;;;22.97;59.43;64378.00;5079735;28;20224;-76
2023/06/08 08:37:31;;;;;;;4.80;3.80;;;;;;;23.17;58.32;64398.94;5080429;28;20227;-75
2023/06/08 08:39:58;;;;;;;6.10;3.17;;;;;;;23.35;61.03;64417.25;5078414;28;20204;-77
2023/06/08 08:42:28;;;;;;;4.15;3.45;;;;;;;23.53;58.10;64433.47;5079696;28;20261;-75
2023/06/08 08:45:00;;;;;;;4.45;3.65;;;;;;;23.43;57.65;64428.75;5078219;28;20200;-76
2023/06/08 08:47:29;;;;;;;4.03;3.65;;;;;;;23.05;58.35;64383.78;5076771;28;20239;-75
2023/06/08 08:50:03;;;;;;;4.47;3.90;;;;;;;22.97;61.69;64380.59;5077585;28;20223;-75
2023/06/08 08:52:33;;;;;;;3.85;3.55;;;;;;;23.06;60.74;64390.00;5079467;28;20263;-75
2023/06/08 08:55:01;;;;;;;5.97;3.67;;;;;;;22.92;58.62;64375.91;5076935;28;20528;-75
2023/06/08 08:57:29;;;;;;;4.15;3.58;;;;;;;23.12;59.68;64393.69;5073644;28;20255;-76
2023/06/08 08:59:56;;;;;;;3.72;3.42;;;;;;;23.38;57.90;64417.78;5079775;28;20197;-74
2023/06/08 09:02:23;;;;;;;3.78;3.47;;;;;;;23.12;57.06;64395.78;5078391;28;20258;-75
2023/06/08 09:04:50;;;;;;;4.50;3.38;;;;;;;22.83;60.16;64365.97;5073417;28;20197;-74
2023/06/08 09:07:21;;;;;;;7.15;3.35;;;;;;;22.84;58.60;64361.81;5075974;28;20215;-75
2023/06/08 09:10:20;;;;;;;3.67;3.38;;;;;;;22.90;59.85;64373.28;5078937;28;20259;-75
2023/06/08 09:12:48;;;;;;;3.88;3.50;;;;;;;23.25;59.35;64402.09;5079516;28;20243;-76
2023/06/08 09:15:24;;;;;;;4.07;3.65;;;;;;;22.99;58.13;64382.69;5073434;28;20426;-75
2023/06/08 09:17:53;;;;;;;4.15;3.75;;;;;;;22.74;60.45;64357.06;5076951;28;20223;-75
2023/06/08 09:20:27;;;;;;;7.10;4.32;;;;;;;22.39;62.64;64319.94;5072666;28;20241;-75
2023/06/08 09:22:57;;;;;;;4.00;3.70;;;;;;;22.66;60.60;64348.19;5075253;28;20211;-76
2023/06/08 09:25:38;;;;;;;6.15;4.00;;;;;;;23.03;60.57;64386.88;5078750;28;20210;-75
2023/06/08 09:28:18;;;;;;;4.28;3.80;;;;;;;23.24;62.79;64403.13;5073090;28;20248;-76
2023/06/08 09:30:48;;;;;;;3.47;3.28;;;;;;;23.40;61.46;64419.88;5076896;28;20199;-76
2023/06/08 09:33:20;;;;;;;3.78;3.47;;;;;;;23.53;58.54;64438.69;5074520;28;20442;-75
2023/06/08 09:35:49;;;;;;;3.63;3.40;;;;;;;23.74;57.65;64461.19;5073051;28;20223;-76
2023/06/08 09:38:20;;;;;;;4.55;3.65;;;;;;;24.17;57.33;64499.94;5075569;28;20247;-75
2023/06/08 09:40:47;;;;;;;5.45;3.42;;;;;;;24.50;53.52;64537.09;5075912;28;20196;-76
2023/06/08 09:43:32;;;;;;;3.50;3.30;;;;;;;24.78;50.48;64566.97;5074382;28;20219;-77
2023/06/08 09:45:59;;;;;;;3.60;3.30;;;;;;;24.90;49.69;64579.53;5075886;28;20230;-75
2023/06/08 09:48:26;;;;;;;4.07;3.67;;;;;;;24.78;51.21;64569.56;5079261;28;20278;-77
2023/06/08 09:51:00;;;;;;;3.95;3.70;;;;;;;24.72;52.90;64560.69;5072491;28;20271;-75
2023/06/08 09:53:29;;;;;;;3.65;3.45;;;;;;;24.38;53.19;64530.28;5072027;28;20196;-74
2023/06/08 09:55:59;;;;;;;3.67;3.40;;;;;;;24.17;54.16;64497.88;5071441;28;20255;-74
2023/06/08 09:58:26;;;;;;;3.50;3.30;;;;;;;24.12;52.56;64495.25;5077679;28;20250;-75
2023/06/08 10:01:00;;;;;;;7.00;3.88;;;;;;;24.17;52.74;64505.16;5077193;28;20215;-75
2023/06/08 10:03:32;;;;;;;4.07;3.78;;;;;;;24.20;53.36;64503.59;5076106;28;20430;-76
2023/06/08 10:06:00;;;;;;;3.38;3.17;;;;;;;24.09;52.04;64492.09;5073011;28;20223;-75
2023/06/08 10:08:30;;;;;;;3.30;3.00;;;;;;;24.03;51.77;64488.41;5073321;28;20231;-75
2023/06/08 10:10:58;;;;;;;3.60;3.40;;;;;;;23.97;53.39;64487.84;5077857;28;20196;-75
2023/06/08 10:13:26;;;;;;;3.55;3.35;;;;;;;23.94;52.71;64481.56;5076487;28;20197;-76
2023/06/08 10:15:53;;;;;;;3.90;3.40;;;;;;;24.00;52.38;64487.88;5081528;28;20211;-75
2023/06/08 10:18:21;;;;;;;3.78;3.45;;;;;;;24.11;51.12;64498.88;5074104;28;20232;-76
2023/06/08 10:20:48;;;;;;;4.25;3.95;;;;;;;24.20;52.30;64508.81;5073797;28;20239;-75
2023/06/08 10:23:16;;;;;;;3.70;3.30;;;;;;;24.16;53.06;64499.41;5074597;28;20216;-76
2023/06/08 10:25:45;;;;;;;5.63;3.00;;;;;;;24.23;53.70;64503.63;5076969;28;20293;-74
2023/06/08 10:28:14;;;;;;;4.53;3.83;;;;;;;24.34;52.89;64520.88;5075734;28;20258;-74
2023/06/08 10:30:41;;;;;;;3.90;3.63;;;;;;;24.23;52.90;64509.34;5073147;28;20197;-76
2023/06/08 10:33:10;;;;;;;3.35;3.10;;;;;;;24.42;52.25;64529.25;5076301;28;20225;-76
2023/06/08 10:35:38;;;;;;;3.53;3.22;;;;;;;24.43;51.02;64530.31;5074790;28;20296;-75
2023/06/08 10:38:12;;;;;;;4.20;3.13;;;;;;;24.53;50.69;64542.84;5077109;28;20208;-77
2023/06/08 10:40:45;;;;;;;2.92;2.72;;;;;;;24.86;50.40;64574.81;5075044;28;20565;-76
2023/06/08 10:43:11;;;;;;;3.45;3.10;;;;;;;24.80;49.76;64568.53;5075483;28;20251;-75
2023/06/08 10:45:44;;;;;;;3.75;3.50;;;;;;;24.53;51.11;64545.44;5074827;28;20200;-75
2023/06/08 10:48:15;;;;;;;3.78;2.95;;;;;;;24.45;51.95;64534.47;5071402;28;20231;-74
2023/06/08 10:50:44;;;;;;;3.55;3.33;;;;;;;24.68;52.08;64555.94;5077441;28;20242;-75
2023/06/08 10:53:12;;;;;;;3.63;3.30;;;;;;;25.00;51.09;64590.00;5073484;28;20243;-75
2023/06/08 10:55:39;;;;;;;4.63;3.33;;;;;;;24.86;49.38;64572.75;5074987;28;20196;-75
2023/06/08 10:58:16;;;;;;;3.00;2.80;;;;;;;24.97;50.13;64586.34;5075313;28;20250;-76
2023/06/08 11:00:43;;;;;;;6.03;3.35;;;;;;;25.31;53.75;64616.22;5075630;28;20200;-75
2023/06/08 11:03:12;;;;;;;6.28;2.92;;;;;;;25.53;50.12;64644.50;5075689;28;20212;-76
2023/06/08 11:05:43;;;;;;;3.92;3.53;;;;;;;25.52;49.25;64643.97;5073522;28;20515;-75
2023/06/08 11:08:11;;;;;;;3.15;2.95;;;;;;;25.59;47.38;64656.00;5076563;28;20224;-75
2023/06/08 11:10:39;;;;;;;3.53;3.33;;;;;;;25.62;48.62;64656.53;5075644;28;20196;-76
2023/06/08 11:13:09;;;;;;;3.60;3.33;;;;;;;25.68;48.48;64662.84;5076199;28;20222;-77
2023/06/08 11:15:37;;;;;;;3.33;3.13;;;;;;;25.81;49.10;64674.38;5076384;28;20204;-75
2023/06/08 11:18:07;;;;;;;3.65;2.80;;;;;;;25.76;47.77;64663.38;5072009;28;20227;-76
2023/06/08 11:20:34;;;;;;;2.92;2.72;;;;;;;25.57;47.06;64649.22;5076436;28;20200;-74
2023/06/08 11:23:02;;;;;;;3.17;2.85;;;;;;;25.17;47.70;64604.16;5073277;28;20231;-76
2023/06/08 11:25:30;;;;;;;6.43;2.70;;;;;;;25.18;47.16;64607.81;5075813;28;20333;-76
2023/06/08 11:27:57;;;;;;;3.35;3.15;;;;;;;25.29;49.79;64619.84;5074779;28;20287;-75
2023/06/08 11:30:27;;;;;;;3.30;3.00;;;;;;;25.26;49.09;64618.81;5074793;28;20191;-74
2023/06/08 11:32:55;;;;;;;3.25;2.95;;;;;;;25.13;47.58;64601.00;5075634;28;20547;-75
2023/06/08 11:35:22;;;;;;;3.35;2.80;;;;;;;25.58;45.99;64647.13;5077837;28;20200;-75